TimeAKDT,TemperatureF,Dew PointF,Humidity,Sea Level PressureIn,VisibilityMPH,Wind Direction,Wind SpeedMPH,Gust SpeedMPH,PrecipitationIn,Events,Conditions,WindDirDegrees,DateUTC
12:32 AM,33.8,33.8,100,29.60,6.0,NNE,26.5,32.2,N/A,,Mostly Cloudy,20,2013-10-12 08:32:00
12:52 AM,33.8,33.8,100,29.59,4.0,NNE,28.8,-,N/A,Rain,Light Rain Showers,20,2013-10-12 08:52:00
12:55 AM,33.8,33.8,100,29.59,7.0,NNE,24.2,33.4,0.00,Rain,Light Rain Showers,20,2013-10-12 08:55:00
1:12 AM,33.8,33.8,100,29.59,9.0,NNE,29.9,-,N/A,,Overcast,20,2013-10-12 09:12:00
1:32 AM,33.8,33.8,100,29.59,6.0,NNE,31.1,-,N/A,Rain,Light Rain Showers,20,2013-10-12 09:32:00
1:52 AM,33.8,33.8,100,29.59,5.0,NNE,31.1,35.7,N/A,,Mostly Cloudy,30,2013-10-12 09:52:00
1:55 AM,33.6,33.4,99,29.59,5.0,NNE,29.9,35.7,N/A,Rain,Light Rain Showers,30,2013-10-12 09:55:00
2:12 AM,33.8,33.8,100,29.60,4.0,NNE,32.2,-,N/A,Rain,Light Rain Showers,30,2013-10-12 10:12:00
2:32 AM,33.8,33.8,100,29.60,2.5,NNE,29.9,36.8,N/A,Rain,Light Rain Showers,30,2013-10-12 10:32:00
2:52 AM,33.8,33.8,100,29.60,1.5,NNE,31.1,-,N/A,Rain,Light Rain Showers,30,2013-10-12 10:52:00
2:55 AM,33.4,33.3,99,29.60,1.8,NNE,32.2,-,0.02,Rain,Light Rain Showers,30,2013-10-12 10:55:00
3:32 AM,33.8,33.8,100,29.59,1.5,NNE,31.1,36.8,N/A,Rain,Light Rain,20,2013-10-12 11:32:00
3:52 AM,33.8,33.8,100,29.60,1.8,NNE,29.9,36.8,N/A,Rain,Light Rain,30,2013-10-12 11:52:00
3:55 AM,33.8,33.8,100,29.60,1.8,NNE,28.8,35.7,N/A,Rain,Light Rain,30,2013-10-12 11:55:00
4:12 AM,33.8,33.8,100,29.60,1.2,NNE,28.8,36.8,N/A,Rain,Light Rain,30,2013-10-12 12:12:00
4:32 AM,33.8,33.8,100,29.60,1.5,NNE,29.9,36.8,N/A,Rain,Light Rain,30,2013-10-12 12:32:00
4:52 AM,33.8,33.8,100,29.59,1.8,NNE,31.1,35.7,N/A,Rain,Light Rain Showers,30,2013-10-12 12:52:00
4:55 AM,33.1,33.3,100,29.60,2.0,NNE,29.9,34.5,0.00,Rain,Light Rain Showers,30,2013-10-12 12:55:00
5:12 AM,33.8,33.8,100,29.59,3.0,NNE,29.9,36.8,N/A,Rain,Light Rain Showers,30,2013-10-12 13:12:00
5:32 AM,33.8,33.8,100,29.59,2.5,NNE,29.9,36.8,N/A,Rain,Light Rain Showers,30,2013-10-12 13:32:00
5:52 AM,33.8,33.8,100,29.59,1.8,NNE,29.9,-,N/A,Rain,Light Rain Showers,30,2013-10-12 13:52:00
5:55 AM,33.3,33.4,100,29.58,1.5,NNE,33.4,-,0.00,Rain,Light Rain Showers,30,2013-10-12 13:55:00
6:12 AM,33.8,33.8,100,29.57,1.8,NNE,32.2,38.0,N/A,Rain,Light Rain Showers,30,2013-10-12 14:12:00
6:52 AM,33.8,33.8,100,29.57,5.0,NNE,32.2,41.4,N/A,,Overcast,30,2013-10-12 14:52:00
6:55 AM,33.1,33.1,100,29.57,5.0,NNE,34.5,41.4,N/A,,Overcast,30,2013-10-12 14:55:00
7:12 AM,33.8,33.8,100,29.56,3.0,NNE,36.8,43.7,N/A,Rain,Light Rain Showers,30,2013-10-12 15:12:00
7:32 AM,33.8,33.8,100,29.56,2.5,NNE,33.4,42.6,N/A,Rain,Light Rain Showers,30,2013-10-12 15:32:00
7:55 AM,33.3,33.3,100,29.56,1.8,NNE,35.7,40.3,0.00,Rain,Light Rain Showers,30,2013-10-12 15:55:00
8:12 AM,33.8,33.8,100,29.56,1.2,NNE,33.4,41.4,N/A,Rain,Light Rain Showers,30,2013-10-12 16:12:00
8:33 AM,33.8,33.8,100,29.56,2.0,NE,35.7,41.4,N/A,Rain,Light Rain Showers,40,2013-10-12 16:33:00
8:53 AM,33.8,33.8,100,29.55,2.5,NNE,32.2,39.1,N/A,,Drizzle,30,2013-10-12 16:53:00
8:55 AM,33.4,33.6,100,29.55,2.5,NNE,35.7,40.3,N/A,,Drizzle,30,2013-10-12 16:55:00
9:13 AM,33.8,33.8,100,29.54,5.0,NNE,34.5,42.6,N/A,Rain,Light Rain,30,2013-10-12 17:13:00
9:33 AM,33.8,33.8,100,29.55,6.0,NNE,32.2,42.6,N/A,,Clear,30,2013-10-12 17:33:00
9:53 AM,33.8,33.8,100,29.55,6.0,NNE,32.2,38.0,N/A,,Overcast,30,2013-10-12 17:53:00
9:55 AM,33.8,32.0,93,-9999,6.0,NNE,32.2,38.0,0.00,,Overcast,30,2013-10-12 17:55:00
10:33 AM,33.8,33.8,100,29.54,1.0,NNE,32.2,36.8,N/A,Rain,Light Rain,30,2013-10-12 18:33:00
10:53 AM,33.8,33.8,100,29.55,0.8,NNE,29.9,38.0,N/A,Rain,Light Rain,30,2013-10-12 18:53:00
10:55 AM,34.2,34.3,100,29.55,0.8,NNE,28.8,-,N/A,Rain,Light Rain,30,2013-10-12 18:55:00
11:53 AM,35.6,35.6,100,29.54,0.2,NNE,28.8,-,N/A,Fog-Rain,Light Rain,30,2013-10-12 19:53:00
11:55 AM,35.4,35.6,100,29.54,0.2,NNE,29.9,-,0.02,Fog-Rain,Light Rain,30,2013-10-12 19:55:00
12:13 PM,35.6,35.6,100,29.55,0.5,NE,24.2,-,N/A,Fog-Rain,Light Rain,40,2013-10-12 20:13:00
12:33 PM,35.6,35.6,100,29.54,1.8,NE,24.2,31.1,N/A,Rain,Light Rain,40,2013-10-12 20:33:00
12:53 PM,35.6,35.6,100,29.54,2.0,NE,25.3,-,N/A,,Mostly Cloudy,40,2013-10-12 20:53:00
12:55 PM,36.0,36.0,100,29.54,2.0,NE,26.5,-,N/A,,Mostly Cloudy,40,2013-10-12 20:55:00
1:13 PM,35.6,35.6,100,29.55,10.0,NE,24.2,-,N/A,,Mostly Cloudy,40,2013-10-12 21:13:00
1:55 PM,36.3,36.1,99,29.54,10.0,NE,25.3,32.2,N/A,,Overcast,40,2013-10-12 21:55:00
2:53 PM,37.4,37.4,100,29.52,10.0,NE,26.5,35.7,N/A,Rain,Light Rain,40,2013-10-12 22:53:00
2:55 PM,37.0,36.9,99,29.52,10.0,NE,28.8,35.7,N/A,,Mostly Cloudy,40,2013-10-12 22:55:00
3:13 PM,37.4,37.4,100,29.51,0.5,NE,27.6,-,N/A,Fog-Rain,Light Rain Showers,40,2013-10-12 23:13:00
3:53 PM,37.4,37.4,100,29.51,10.0,NE,28.8,34.5,N/A,Rain,Light Rain,50,2013-10-12 23:53:00
3:55 PM,37.4,35.6,93,29.49,10.0,NE,27.6,34.5,N/A,Rain,Light Rain,50,2013-10-12 23:55:00
4:33 PM,37.4,35.6,93,29.49,7.0,NE,27.6,33.4,N/A,Rain,Light Rain,40,2013-10-13 00:33:00
4:55 PM,36.5,36.3,99,29.49,7.0,NE,31.1,-,N/A,Rain,Light Rain,40,2013-10-13 00:55:00
5:53 PM,35.6,35.6,100,29.48,5.0,NE,31.1,41.4,N/A,Rain,Light Rain,40,2013-10-13 01:53:00
5:55 PM,36.3,35.6,97,29.48,6.0,NE,33.4,41.4,0.02,Rain,Light Rain,40,2013-10-13 01:55:00
6:55 PM,35.8,35.2,98,29.47,7.0,NE,34.5,-,N/A,Rain,Light Rain,40,2013-10-13 02:55:00
7:33 PM,35.6,35.6,100,29.47,6.0,NE,35.7,41.4,N/A,Rain,Light Rain,40,2013-10-13 03:33:00
7:55 PM,34.7,34.3,99,29.48,9.0,NE,32.2,40.3,0.00,Rain,Light Rain,40,2013-10-13 03:55:00
8:55 PM,35.2,34.9,99,29.48,8.0,NE,32.2,-,0.00,Rain,Light Rain,40,2013-10-13 04:55:00
9:33 PM,33.8,33.8,100,29.47,2.5,NNE,36.8,-,N/A,Rain,Light Rain,30,2013-10-13 05:33:00
9:53 PM,33.8,33.8,100,29.48,3.0,NNE,33.4,-,N/A,Rain,Light Rain,30,2013-10-13 05:53:00
9:55 PM,34.0,34.0,100,29.48,2.5,NNE,33.4,-,0.03,Rain,Light Rain,30,2013-10-13 05:55:00
10:33 PM,33.8,33.8,100,29.48,3.0,NNE,32.2,-,N/A,Rain,Light Rain,30,2013-10-13 06:33:00
10:53 PM,33.8,33.8,100,29.49,2.5,NNE,32.2,38.0,N/A,Rain,Light Rain,30,2013-10-13 06:53:00
10:55 PM,33.6,33.6,100,29.49,2.5,NNE,29.9,36.8,0.03,Rain,Light Rain,30,2013-10-13 06:55:00
11:13 PM,33.8,33.8,100,29.49,5.0,NNE,28.8,36.8,N/A,Rain,Light Rain,20,2013-10-13 07:13:00
11:53 PM,33.8,33.8,100,29.49,2.0,NNE,27.6,-,N/A,Rain,Light Rain,20,2013-10-13 07:53:00
11:55 PM,33.4,33.6,100,29.49,2.0,NNE,27.6,-,0.04,Rain,Light Rain,20,2013-10-13 07:55:00